Terminal Aerodrome Forecast
Issued by NWS Northern Indiana

Home | Current Version | Previous Version | Graphics & Text | Print | Product List | Glossary On
Versions: 1 2 3 4 5 6 7 8 9 10 11 12 13 14 15 16
942
FTUS43 KIWX 222337
TAFFWA
TAF
KFWA 222337Z 2300/2324 26006KT P6SM FEW040 BKN250
     FM230500 VRB03KT 5SM BR SCT250
     FM230800 00000KT 2SM BR SCT008
      TEMPO 2308/2312 1/2SM FG BKN008
     FM231300 00000KT 3SM BR SCT008 BKN025
     FM231500 22004KT P6SM SCT040=

USA.gov is the U.S. government's official web portal to all federal, state and local government web resources and services.